Aviation Digital Data Service (ADDS)

Output produced by METARs form (2103 UTC 29 May 2016)
found at http://www.aviationweather.gov/adds/metars/
 
KILG 292051Z 18009KT 10SM FEW040 SCT070 BKN110 24/21 A3008 RMK AO2 RAB23E51 SLP186 P0000 60000 T02390211 56014
KILG 292049Z 2921/3018 16010KT P6SM VCSH SCT050 BKN200 
     TEMPO 2921/2924 2SM SHRA BKN035 
     FM300000 17005KT 5SM -SHRA BR BKN020 OVC035 
     FM300600 19004KT 3SM -SHRA BR OVC009 
     FM301200 VRB03KT 2SM SHRA BR OVC007